createdAt,value
2023-08-29T00:00:01.328Z,94253.44
2023-08-29T00:02:33.537Z,94257.91
2023-08-29T00:05:01.070Z,94269.28
2023-08-29T00:07:28.592Z,94278.19
2023-08-29T00:09:56.136Z,94277.41
2023-08-29T00:12:24.929Z,94273.97
2023-08-29T00:14:52.373Z,94278.41
2023-08-29T00:17:19.895Z,94285.50
2023-08-29T00:19:47.365Z,94276.81
2023-08-29T00:22:15.853Z,94283.91
2023-08-29T00:24:45.173Z,94287.38
2023-08-29T00:27:12.669Z,94285.72
2023-08-29T00:29:41.520Z,94283.09
2023-08-29T00:32:09.010Z,94275.41
2023-08-29T00:34:36.500Z,94270.13
2023-08-29T00:37:04.037Z,94283.09
2023-08-29T00:39:31.533Z,94273.53
2023-08-29T00:41:59.021Z,94274.38
2023-08-29T00:44:26.520Z,94279.63
2023-08-29T00:46:55.522Z,94267.47
2023-08-29T00:49:24.639Z,94265.63
2023-08-29T00:51:52.490Z,94266.66
2023-08-29T00:54:21.268Z,94259.56
2023-08-29T00:56:49.582Z,94263.22
2023-08-29T00:59:17.114Z,94270.13
2023-08-29T01:01:46.112Z,94269.31
2023-08-29T01:04:15.030Z,94260.34
2023-08-29T01:06:42.547Z,94260.56
2023-08-29T01:09:10.028Z,94256.34
2023-08-29T01:11:42.943Z,94256.34
2023-08-29T01:14:13.765Z,94252.88
2023-08-29T01:16:43.222Z,94251.06
2023-08-29T01:19:14.055Z,94258.16
2023-08-29T01:21:47.473Z,94262.63
2023-08-29T01:24:20.523Z,94257.34
2023-08-29T01:26:50.596Z,94256.53
2023-08-29T01:29:18.302Z,94258.38
2023-08-29T01:31:45.892Z,94254.94
2023-08-29T01:34:13.945Z,94268.94
2023-08-29T01:36:41.933Z,94266.47
2023-08-29T01:39:09.524Z,94263.03
2023-08-29T01:41:37.229Z,94268.31
2023-08-29T01:44:07.076Z,94263.03
2023-08-29T01:46:34.564Z,94260.59
2023-08-29T01:49:03.497Z,94256.97
2023-08-29T01:51:31.486Z,94264.06
2023-08-29T01:53:59.049Z,94264.88
2023-08-29T01:56:27.959Z,94271.16
2023-08-29T01:58:55.678Z,94268.53
2023-08-29T02:01:24.918Z,94272.19
2023-08-29T02:03:52.747Z,94274.84
2023-08-29T02:06:20.574Z,94266.09
2023-08-29T02:08:48.176Z,94260.00
2023-08-29T02:11:15.760Z,94263.47
2023-08-29T02:13:43.295Z,94266.09
2023-08-29T02:16:10.741Z,94270.56
2023-08-29T02:18:40.378Z,94267.13
2023-08-29T02:21:07.891Z,94262.06
2023-08-29T02:23:35.364Z,94266.50
2023-08-29T02:26:04.060Z,94266.28
2023-08-29T02:28:34.687Z,94265.50
2023-08-29T02:31:04.325Z,94263.66
2023-08-29T02:33:32.111Z,94257.59
2023-08-29T02:36:00.917Z,94263.66
2023-08-29T02:38:28.458Z,94267.34
2023-08-29T02:40:55.936Z,94267.34
2023-08-29T02:43:23.439Z,94262.88
2023-08-29T02:45:51.686Z,94260.44
2023-08-29T02:48:19.192Z,94256.78
2023-08-29T02:50:49.328Z,94262.88
2023-08-29T02:53:18.806Z,94262.88
2023-08-29T02:55:46.308Z,94266.50
2023-08-29T02:58:14.070Z,94264.69
2023-08-29T03:00:41.619Z,94268.34
2023-08-29T03:03:09.498Z,94276.06
2023-08-29T03:05:37.059Z,94276.06
2023-08-29T03:08:06.048Z,94268.16
2023-08-29T03:10:38.263Z,94266.50
2023-08-29T03:13:06.014Z,94269.97
2023-08-29T03:15:33.763Z,94264.91
2023-08-29T03:18:01.742Z,94265.91
2023-08-29T03:20:29.477Z,94264.09
2023-08-29T03:22:57.001Z,94258.81
2023-08-29T03:25:24.585Z,94251.72
2023-08-29T03:27:53.735Z,94258.22
2023-08-29T03:30:21.361Z,94248.50
2023-08-29T03:32:51.430Z,94243.22
2023-08-29T03:35:19.109Z,94249.47
2023-08-29T03:37:46.874Z,94255.59
2023-08-29T03:40:14.817Z,94252.09
2023-08-29T03:42:42.327Z,94249.47
2023-08-29T03:45:11.498Z,94246.00
2023-08-29T03:47:39.844Z,94246.00
2023-08-29T03:50:07.784Z,94247.84
2023-08-29T03:52:35.270Z,94247.84
2023-08-29T03:55:02.750Z,94250.47
2023-08-29T03:57:30.223Z,94255.97
2023-08-29T03:59:57.783Z,94259.41
2023-08-29T04:02:26.809Z,94262.88
2023-08-29T04:04:54.944Z,94253.31
2023-08-29T04:07:22.697Z,94254.16
2023-08-29T04:09:50.164Z,94251.50
2023-08-29T04:12:17.645Z,94247.25
2023-08-29T04:14:45.134Z,94255.75
2023-08-29T04:17:12.617Z,94256.56
2023-08-29T04:19:41.440Z,94251.50
2023-08-29T04:22:08.994Z,94260.00
2023-08-29T04:24:36.444Z,94258.38
2023-08-29T04:27:04.181Z,94263.66
2023-08-29T04:29:31.690Z,94262.66
2023-08-29T04:31:59.172Z,94260.22
2023-08-29T04:34:26.641Z,94264.47
2023-08-29T04:36:56.420Z,94267.09
2023-08-29T04:39:23.886Z,94266.28
2023-08-29T04:41:51.907Z,94269.75
2023-08-29T04:44:19.413Z,94266.28
2023-08-29T04:46:46.887Z,94266.28
2023-08-29T04:49:14.366Z,94258.38
2023-08-29T04:51:41.867Z,94255.97
2023-08-29T04:54:10.676Z,94261.03
2023-08-29T04:56:38.171Z,94258.38
2023-08-29T04:59:05.848Z,94252.31
2023-08-29T05:01:33.411Z,94252.31
2023-08-29T05:04:00.933Z,94254.97
2023-08-29T05:06:28.461Z,94244.41
2023-08-29T05:08:55.916Z,94251.50
2023-08-29T05:11:24.714Z,94251.50
2023-08-29T05:13:52.195Z,94253.31
2023-08-29T05:16:19.718Z,94257.78
2023-08-29T05:18:47.699Z,94260.44
2023-08-29T05:21:15.195Z,94261.25
2023-08-29T05:23:42.630Z,94263.66
2023-08-29T05:26:11.745Z,94264.47
2023-08-29T05:28:42.556Z,94265.69
2023-08-29T05:31:10.125Z,94275.47
2023-08-29T05:33:37.679Z,94270.38
2023-08-29T05:36:05.196Z,94266.31
2023-08-29T05:38:32.713Z,94262.91
2023-08-29T05:41:00.189Z,94252.53
2023-08-29T05:43:28.109Z,94258.84
2023-08-29T05:45:57.715Z,94258.03
2023-08-29T05:48:25.455Z,94264.31
2023-08-29T05:50:52.998Z,94266.16
2023-08-29T05:53:20.560Z,94265.34
2023-08-29T05:55:48.439Z,94269.00
2023-08-29T05:58:15.978Z,94278.75
2023-08-29T06:00:43.521Z,94277.13
2023-08-29T06:03:13.031Z,94274.47
2023-08-29T06:05:42.703Z,94283.22
2023-08-29T06:08:19.248Z,94283.44
2023-08-29T06:10:48.865Z,94275.50
2023-08-29T06:13:16.397Z,94275.50
2023-08-29T06:15:43.879Z,94281.78
2023-08-29T06:18:12.771Z,94287.88
2023-08-29T06:20:40.344Z,94289.69
2023-08-29T06:23:07.932Z,94297.59
2023-08-29T06:25:35.441Z,94304.69
2023-08-29T06:28:02.958Z,94298.63
2023-08-29T06:30:30.464Z,94303.88
2023-08-29T06:32:58.012Z,94304.91
2023-08-29T06:35:27.070Z,94294.38
2023-08-29T06:37:56.670Z,94301.47
2023-08-29T06:40:24.138Z,94301.25
2023-08-29T06:42:51.590Z,94308.56
2023-08-29T06:45:19.183Z,94314.66
2023-08-29T06:47:46.722Z,94316.47
2023-08-29T06:50:14.250Z,94321.75
2023-08-29T06:52:43.095Z,94326.22
2023-08-29T06:55:11.036Z,94314.06
2023-08-29T06:57:38.762Z,94329.06
2023-08-29T07:00:06.875Z,94326.63
2023-08-29T07:02:34.458Z,94324.81
2023-08-29T07:05:02.018Z,94324.81
2023-08-29T07:07:30.010Z,94327.44
2023-08-29T07:09:58.832Z,94329.25
2023-08-29T07:12:26.297Z,94332.72
2023-08-29T07:14:53.806Z,94331.09
2023-08-29T07:17:21.361Z,94330.28
2023-08-29T07:19:48.824Z,94335.53
2023-08-29T07:22:23.968Z,94328.66
2023-08-29T07:24:52.278Z,94342.66
2023-08-29T07:27:21.586Z,94344.28
2023-08-29T07:29:49.260Z,94343.66
2023-08-29T07:32:16.775Z,94353.41
2023-08-29T07:34:44.276Z,94352.59
2023-08-29T07:37:11.784Z,94345.69
2023-08-29T07:39:39.259Z,94350.97
2023-08-29T07:42:07.046Z,94346.53
2023-08-29T07:44:35.850Z,94351.78
2023-08-29T07:47:14.789Z,94352.78
2023-08-29T07:49:43.380Z,94348.34
2023-08-29T07:52:11.145Z,94348.34
2023-08-29T07:54:38.704Z,94352.78
2023-08-29T07:57:06.193Z,94347.53
2023-08-29T07:59:33.680Z,94344.88
2023-08-29T08:02:02.570Z,94342.47
2023-08-29T08:04:30.048Z,94338.78
2023-08-29T08:06:57.554Z,94344.06
2023-08-29T08:09:25.154Z,94353.81
2023-08-29T08:11:52.627Z,94354.81
2023-08-29T08:14:20.189Z,94364.38
2023-08-29T08:16:47.701Z,94353.00
2023-08-29T08:19:16.756Z,94356.47
2023-08-29T08:21:44.270Z,94354.81
2023-08-29T08:24:11.778Z,94365.38
2023-08-29T08:26:39.266Z,94361.91
2023-08-29T08:29:06.800Z,94364.56
2023-08-29T08:31:34.640Z,94356.84
2023-08-29T08:34:02.436Z,94374.31
2023-08-29T08:36:31.831Z,94365.59
2023-08-29T08:38:59.316Z,94368.22
2023-08-29T08:41:26.854Z,94381.41
2023-08-29T08:43:57.244Z,94379.75
2023-08-29T08:46:24.838Z,94381.63
2023-08-29T08:48:52.479Z,94387.69
2023-08-29T08:51:21.019Z,94390.31
2023-08-29T08:53:51.191Z,94395.59
2023-08-29T08:56:18.657Z,94395.59
2023-08-29T08:58:46.453Z,94395.78
2023-08-29T09:01:14.176Z,94393.16
2023-08-29T09:03:41.906Z,94392.34
2023-08-29T09:06:13.967Z,94393.16
2023-08-29T09:08:41.631Z,94402.88
2023-08-29T09:11:11.241Z,94410.78
2023-08-29T09:13:46.931Z,94396.00
2023-08-29T09:16:14.908Z,94396.78
2023-08-29T09:18:44.814Z,94401.28
2023-08-29T09:21:18.269Z,94412.59
2023-08-29T09:23:45.834Z,94412.81
2023-08-29T09:26:14.887Z,94404.09
2023-08-29T09:28:42.715Z,94413.66
2023-08-29T09:31:10.900Z,94415.47
2023-08-29T09:33:39.247Z,94404.91
2023-08-29T09:36:07.076Z,94407.56
2023-08-29T09:38:35.263Z,94403.09
2023-08-29T09:41:02.774Z,94412.00
2023-08-29T09:43:31.949Z,94412.00
2023-08-29T09:46:00.453Z,94410.19
2023-08-29T09:48:29.000Z,94395.19
2023-08-29T09:50:58.216Z,94410.41
2023-08-29T09:53:25.959Z,94405.94
2023-08-29T09:55:57.686Z,94410.19
2023-08-29T09:58:26.929Z,94413.84
2023-08-29T10:00:56.095Z,94415.47
2023-08-29T10:03:25.893Z,94410.19
2023-08-29T10:05:53.863Z,94411.22
2023-08-29T10:08:26.082Z,94414.84
2023-08-29T10:10:56.338Z,94416.69
2023-08-29T10:13:23.967Z,94419.13
2023-08-29T10:15:52.790Z,94417.50
2023-08-29T10:18:21.912Z,94425.41
2023-08-29T10:20:50.772Z,94420.13
2023-08-29T10:23:19.757Z,94426.22
2023-08-29T10:25:47.587Z,94419.31
2023-08-29T10:28:16.230Z,94420.34
2023-08-29T10:30:45.283Z,94412.44
2023-08-29T10:33:13.526Z,94414.03
2023-08-29T10:35:42.572Z,94409.78
2023-08-29T10:38:15.220Z,94410.63
2023-08-29T10:40:44.265Z,94409.97
2023-08-29T10:43:18.172Z,94413.44
2023-08-29T10:45:48.372Z,94423.97
2023-08-29T10:48:19.825Z,94411.81
2023-08-29T10:50:49.418Z,94416.28
2023-08-29T10:53:20.741Z,94415.25
2023-08-29T10:55:59.869Z,94410.78
2023-08-29T10:58:35.740Z,94409.19
2023-08-29T11:01:03.922Z,94411.81
2023-08-29T11:03:41.596Z,94412.81
2023-08-29T11:06:10.552Z,94406.75
2023-08-29T11:08:38.245Z,94407.56
2023-08-29T11:11:16.372Z,94403.31
2023-08-29T11:13:59.727Z,94396.19
2023-08-29T11:16:27.377Z,94398.84
2023-08-29T11:19:07.613Z,94398.84
2023-08-29T11:21:36.485Z,94390.94
2023-08-29T11:26:37.676Z,94385.66
2023-08-29T11:29:06.802Z,94376.16
2023-08-29T11:31:34.664Z,94376.97
2023-08-29T11:34:02.185Z,94387.50
2023-08-29T11:36:32.961Z,94402.28
2023-08-29T11:39:01.794Z,94398.03
2023-08-29T11:41:39.747Z,94393.56
2023-08-29T11:44:37.770Z,94392.78
2023-08-29T11:47:05.139Z,94397.22
2023-08-29T11:49:33.465Z,94398.03
2023-08-29T11:52:01.087Z,94405.13
2023-08-29T11:54:42.967Z,94403.31
2023-08-29T11:57:12.570Z,94404.31
2023-08-29T11:59:43.027Z,94401.69
2023-08-29T12:02:13.067Z,94400.88
2023-08-29T12:04:41.184Z,94402.50
2023-08-29T12:07:12.348Z,94410.59
2023-08-29T12:09:42.416Z,94415.69
2023-08-29T12:12:11.896Z,94415.84
2023-08-29T12:14:50.170Z,94419.31
2023-08-29T12:17:17.886Z,94424.59
2023-08-29T12:19:45.422Z,94420.13
2023-08-29T12:22:12.936Z,94422.97
2023-08-29T12:24:41.466Z,94428.25
2023-08-29T12:27:08.934Z,94435.34
2023-08-29T12:29:37.813Z,94437.97
2023-08-29T12:32:07.204Z,94429.25
2023-08-29T12:34:34.919Z,94433.69
2023-08-29T12:37:02.453Z,94436.34
2023-08-29T12:39:29.927Z,94436.16
2023-08-29T12:41:57.725Z,94438.19
2023-08-29T12:44:25.203Z,94439.78
2023-08-29T12:46:54.032Z,94429.47
2023-08-29T12:49:21.548Z,94432.09
2023-08-29T12:51:49.051Z,94427.66
2023-08-29T12:54:16.586Z,94437.38
2023-08-29T12:56:45.058Z,94426.00
2023-08-29T12:59:12.552Z,94442.63
2023-08-29T13:01:40.068Z,94438.19
2023-08-29T13:04:09.106Z,94434.94
2023-08-29T13:06:36.713Z,94424.41
2023-08-29T13:09:04.182Z,94427.03
2023-08-29T13:11:31.657Z,94427.81
2023-08-29T13:13:59.177Z,94425.19
2023-08-29T13:16:32.517Z,94423.59
2023-08-29T13:19:00.222Z,94416.50
2023-08-29T13:21:29.617Z,94419.13
2023-08-29T13:23:57.300Z,94417.28
2023-08-29T13:26:25.002Z,94421.75
2023-08-29T13:28:53.797Z,94422.56
2023-08-29T13:31:22.861Z,94425.19
2023-08-29T13:33:50.598Z,94424.41
2023-08-29T13:36:18.107Z,94424.41
2023-08-29T13:38:46.969Z,94430.47
2023-08-29T13:41:14.881Z,94422.75
2023-08-29T13:43:42.389Z,94420.13
2023-08-29T13:46:09.878Z,94425.41
2023-08-29T13:48:37.407Z,94420.13
2023-08-29T13:51:04.925Z,94428.03
2023-08-29T13:53:32.463Z,94428.84
2023-08-29T13:56:01.430Z,94425.41
2023-08-29T13:58:29.004Z,94428.84
2023-08-29T14:00:56.905Z,94431.66
2023-08-29T14:03:37.083Z,94430.66
2023-08-29T14:06:06.549Z,94431.66
2023-08-29T14:08:34.084Z,94426.41
2023-08-29T14:11:06.532Z,94430.88
2023-08-29T14:13:35.437Z,94419.53
2023-08-29T14:16:04.931Z,94423.75
2023-08-29T14:18:32.555Z,94429.03
2023-08-29T14:21:00.198Z,94417.88
2023-08-29T14:23:28.153Z,94411.84
2023-08-29T14:25:55.780Z,94423.16
2023-08-29T14:28:24.652Z,94427.66
2023-08-29T14:30:52.243Z,94427.81
2023-08-29T14:33:19.877Z,94427.81
2023-08-29T14:35:47.423Z,94437.38
2023-08-29T14:38:15.042Z,94442.63
2023-08-29T14:40:42.507Z,94442.63
2023-08-29T14:43:10.490Z,94440.00
2023-08-29T14:45:43.055Z,94441.00
2023-08-29T14:48:12.959Z,94435.72
2023-08-29T14:50:45.218Z,94440.00
2023-08-29T14:53:12.764Z,94438.38
2023-08-29T14:55:40.257Z,94442.63
2023-08-29T14:58:08.045Z,94437.53
2023-08-29T15:00:35.975Z,94439.19
2023-08-29T15:03:09.900Z,94451.53
2023-08-29T15:05:37.850Z,94449.72
2023-08-29T15:08:05.947Z,94454.19
2023-08-29T15:10:33.710Z,94458.44
2023-08-29T15:13:01.283Z,94447.09
2023-08-29T15:15:29.156Z,94454.19
2023-08-29T15:17:56.786Z,94457.63
2023-08-29T15:20:26.303Z,94468.16
2023-08-29T15:22:54.058Z,94459.44
2023-08-29T15:25:21.542Z,94461.09
2023-08-29T15:27:49.034Z,94462.91
2023-08-29T15:30:16.513Z,94463.09
2023-08-29T15:32:44.041Z,94457.84
2023-08-29T15:35:11.989Z,94457.84
2023-08-29T15:37:40.800Z,94463.09
2023-08-29T15:40:10.017Z,94460.47
2023-08-29T15:42:38.127Z,94463.09
2023-08-29T15:45:06.213Z,94464.91
2023-08-29T15:47:33.738Z,94461.47
2023-08-29T15:50:01.251Z,94460.47
2023-08-29T15:52:28.814Z,94475.47
2023-08-29T15:54:57.665Z,94472.00
2023-08-29T15:57:25.215Z,94473.03
2023-08-29T15:59:52.865Z,94474.66
2023-08-29T16:02:20.410Z,94473.03
2023-08-29T16:04:47.895Z,94481.72
2023-08-29T16:07:15.394Z,94486.22
2023-08-29T16:09:42.855Z,94488.03
2023-08-29T16:12:11.752Z,94486.38
2023-08-29T16:14:39.233Z,94487.22
2023-08-29T16:17:06.721Z,94489.84
2023-08-29T16:19:34.303Z,94497.75
2023-08-29T16:22:01.840Z,94484.78
2023-08-29T16:24:29.360Z,94491.66
2023-08-29T16:26:56.904Z,94491.88
2023-08-29T16:29:25.703Z,94495.31
2023-08-29T16:31:53.217Z,94493.69
2023-08-29T16:34:20.745Z,94501.41
2023-08-29T16:36:48.224Z,94500.78
2023-08-29T16:39:15.704Z,94502.41
2023-08-29T16:41:43.229Z,94499.78
2023-08-29T16:44:11.062Z,94504.84
2023-08-29T16:46:39.924Z,94504.06
2023-08-29T16:49:07.466Z,94503.22
2023-08-29T16:51:34.942Z,94511.13
2023-08-29T16:54:02.482Z,94505.03
2023-08-29T16:56:31.792Z,94505.88
2023-08-29T16:59:00.100Z,94507.69
2023-08-29T17:01:27.591Z,94510.31
2023-08-29T17:03:56.612Z,94516.59
2023-08-29T17:06:24.159Z,94506.69
2023-08-29T17:08:54.234Z,94514.75
2023-08-29T17:11:22.797Z,94512.94
2023-08-29T17:13:50.317Z,94519.22
2023-08-29T17:16:17.915Z,94512.94
2023-08-29T17:18:45.462Z,94516.59
2023-08-29T17:21:14.282Z,94519.22
2023-08-29T17:23:41.771Z,94516.59
2023-08-29T17:26:09.329Z,94513.16
2023-08-29T17:28:36.793Z,94523.69
2023-08-29T17:31:04.265Z,94534.22
2023-08-29T17:33:31.790Z,94529.97
2023-08-29T17:35:59.245Z,94527.31
2023-08-29T17:38:28.089Z,94522.06
2023-08-29T17:40:59.230Z,94530.78
2023-08-29T17:43:26.690Z,94526.50
2023-08-29T17:45:57.508Z,94529.16
2023-08-29T17:48:27.078Z,94534.41
2023-08-29T17:50:59.080Z,94528.34
2023-08-29T17:53:28.030Z,94531.00
2023-08-29T17:55:55.793Z,94530.16
2023-08-29T17:58:23.368Z,94528.53
2023-08-29T18:00:51.181Z,94531.16
2023-08-29T18:03:18.726Z,94534.63
2023-08-29T18:05:49.686Z,94532.00
2023-08-29T18:08:17.740Z,94531.16
2023-08-29T18:10:47.090Z,94536.44
2023-08-29T18:13:14.987Z,94534.84
2023-08-29T18:15:42.800Z,94533.03
2023-08-29T18:18:17.982Z,94532.19
2023-08-29T18:20:45.684Z,94538.28
2023-08-29T18:23:13.181Z,94542.72
2023-08-29T18:25:40.944Z,94543.56
2023-08-29T18:28:10.067Z,94542.72
2023-08-29T18:30:38.501Z,94550.63
2023-08-29T18:33:07.558Z,94548.81
2023-08-29T18:35:35.611Z,94554.09
2023-08-29T18:38:03.065Z,94555.91
2023-08-29T18:40:30.805Z,94562.78
2023-08-29T18:42:59.040Z,94563.00
2023-08-29T18:45:27.988Z,94557.72
2023-08-29T18:47:57.207Z,94563.00
2023-08-29T18:50:25.845Z,94562.16
2023-08-29T18:52:54.426Z,94568.25
2023-08-29T18:55:21.942Z,94565.63
2023-08-29T18:57:49.510Z,94577.97
2023-08-29T19:00:17.993Z,94573.53
2023-08-29T19:02:47.989Z,94575.16
2023-08-29T19:05:15.952Z,94573.53
2023-08-29T19:07:44.242Z,94567.44
2023-08-29T19:10:12.441Z,94570.06
2023-08-29T19:12:39.967Z,94571.88
2023-08-29T19:15:07.858Z,94574.53
2023-08-29T19:17:35.375Z,94562.38
2023-08-29T19:20:04.624Z,94571.09
2023-08-29T19:22:32.473Z,94568.47
2023-08-29T19:24:59.943Z,94572.91
2023-08-29T19:27:29.016Z,94579.00
2023-08-29T19:29:56.664Z,94571.09
2023-08-29T19:32:24.196Z,94566.00
2023-08-29T19:34:51.751Z,94573.91
2023-08-29T19:37:22.260Z,94569.47
2023-08-29T19:39:49.947Z,94570.28
2023-08-29T19:42:17.434Z,94571.28
2023-08-29T19:44:44.942Z,94573.13
2023-08-29T19:47:12.423Z,94570.50
2023-08-29T19:49:40.616Z,94574.94
2023-08-29T19:52:08.128Z,94574.94
2023-08-29T19:54:36.972Z,94565.22
2023-08-29T19:57:04.990Z,94566.22
2023-08-29T19:59:35.253Z,94567.03
2023-08-29T20:02:03.166Z,94571.50
2023-08-29T20:04:30.738Z,94568.03
2023-08-29T20:06:58.253Z,94570.66
2023-08-29T20:09:26.303Z,94576.75
2023-08-29T20:11:55.368Z,94568.25
2023-08-29T20:14:22.916Z,94573.31
2023-08-29T20:16:52.297Z,94564.56
2023-08-29T20:19:19.886Z,94562.75
2023-08-29T20:21:47.355Z,94564.56
2023-08-29T20:24:14.798Z,94567.22
2023-08-29T20:26:42.294Z,94570.66
2023-08-29T20:29:11.171Z,94576.75
2023-08-29T20:31:38.657Z,94574.31
2023-08-29T20:34:06.193Z,94575.94
2023-08-29T20:36:33.745Z,94576.97
2023-08-29T20:39:01.260Z,94575.13
2023-08-29T20:41:28.837Z,94577.75
2023-08-29T20:43:56.331Z,94584.88
2023-08-29T20:46:25.185Z,94579.59
2023-08-29T20:48:53.680Z,94579.59
2023-08-29T20:51:21.166Z,94584.88
2023-08-29T20:53:48.616Z,94590.13
2023-08-29T20:56:16.145Z,94582.22
2023-08-29T20:58:43.664Z,94588.28
2023-08-29T21:01:11.525Z,94583.22
2023-08-29T21:03:43.618Z,94582.22
2023-08-29T21:06:11.141Z,94591.13
2023-08-29T21:08:38.637Z,94580.78
2023-08-29T21:11:06.266Z,94592.16
2023-08-29T21:13:33.742Z,94583.44
2023-08-29T21:16:01.266Z,94586.88
2023-08-29T21:18:28.743Z,94591.34
2023-08-29T21:21:00.234Z,94593.97
2023-08-29T21:23:28.796Z,94590.50
2023-08-29T21:25:56.267Z,94593.16
2023-08-29T21:28:24.876Z,94588.91
2023-08-29T21:30:52.856Z,94592.31
2023-08-29T21:33:20.724Z,94591.53
2023-08-29T21:35:49.687Z,94597.59
2023-08-29T21:38:18.646Z,94588.91
2023-08-29T21:40:46.943Z,94594.97
2023-08-29T21:43:15.944Z,94582.81
2023-08-29T21:45:43.429Z,94587.28
2023-08-29T21:48:11.789Z,94585.47
2023-08-29T21:50:39.900Z,94596.81
2023-08-29T21:53:08.074Z,94584.63
2023-08-29T21:55:37.245Z,94587.28
2023-08-29T21:58:05.547Z,94576.72
2023-08-29T22:00:34.095Z,94582.81
2023-08-29T22:03:02.078Z,94582.00
2023-08-29T22:05:30.351Z,94581.19
2023-08-29T22:07:58.190Z,94580.19
2023-08-29T22:10:25.702Z,94580.19
2023-08-29T22:12:54.678Z,94584.63
2023-08-29T22:15:22.316Z,94576.72
2023-08-29T22:17:49.932Z,94576.72
2023-08-29T22:20:17.753Z,94574.09
2023-08-29T22:22:45.244Z,94575.91
2023-08-29T22:25:12.747Z,94569.66
2023-08-29T22:27:40.233Z,94577.69
2023-08-29T22:30:10.488Z,94576.72
2023-08-29T22:32:38.930Z,94580.34
2023-08-29T22:35:06.966Z,94577.69
2023-08-29T22:37:34.464Z,94579.38
2023-08-29T22:40:02.258Z,94572.44
2023-08-29T22:42:29.789Z,94574.28
2023-08-29T22:44:57.318Z,94569.78
2023-08-29T22:47:26.187Z,94572.44
2023-08-29T22:49:53.670Z,94574.28
2023-08-29T22:52:21.151Z,94576.09
2023-08-29T22:54:48.728Z,94569.00
2023-08-29T22:57:16.211Z,94573.47
2023-08-29T22:59:43.681Z,94565.56
2023-08-29T23:02:11.215Z,94570.81
2023-08-29T23:04:40.048Z,94560.50
2023-08-29T23:07:08.449Z,94568.41
2023-08-29T23:09:36.680Z,94564.94
2023-08-29T23:12:04.560Z,94564.72
2023-08-29T23:14:32.052Z,94562.31
2023-08-29T23:16:59.557Z,94566.56
2023-08-29T23:19:27.271Z,94564.94
2023-08-29T23:21:56.230Z,94563.13
2023-08-29T23:24:23.705Z,94560.50
2023-08-29T23:26:51.157Z,94561.50
2023-08-29T23:29:20.019Z,94556.22
2023-08-29T23:31:47.527Z,94551.97
2023-08-29T23:34:15.007Z,94550.94
2023-08-29T23:36:44.117Z,94546.72
2023-08-29T23:39:12.971Z,94554.63
2023-08-29T23:41:40.496Z,94547.50
2023-08-29T23:44:08.040Z,94550.13
2023-08-29T23:46:35.576Z,94552.75
2023-08-29T23:49:03.049Z,94552.75
2023-08-29T23:51:30.499Z,94546.72
2023-08-29T23:53:58.004Z,94548.53
2023-08-29T23:56:26.797Z,94546.72
2023-08-29T23:58:54.248Z,94545.88
